createdAt,value
2018-11-23T00:00:26.820Z,91.40
2018-11-23T00:02:55.736Z,91.50
2018-11-23T00:05:24.316Z,91.70
2018-11-23T00:07:52.996Z,91.80
2018-11-23T00:10:22.515Z,91.60
2018-11-23T00:12:50.784Z,91.30
2018-11-23T00:15:20.217Z,91.30
2018-11-23T00:17:48.520Z,91.90
2018-11-23T00:20:18.897Z,91.60
2018-11-23T00:22:47.155Z,91.80
2018-11-23T00:25:17.604Z,91.70
2018-11-23T00:27:45.956Z,91.90
2018-11-23T00:30:16.541Z,91.90
2018-11-23T00:32:45.320Z,91.90
2018-11-23T00:35:15.440Z,91.90
2018-11-23T00:37:44.239Z,91.80
2018-11-23T00:40:14.529Z,91.30
2018-11-23T00:42:43.222Z,91.30
2018-11-23T00:45:12.832Z,91.60
2018-11-23T00:47:41.620Z,91.70
2018-11-23T00:50:11.844Z,91.60
2018-11-23T00:52:41.421Z,91.90
2018-11-23T00:55:11.473Z,91.90
2018-11-23T00:57:39.773Z,91.70
2018-11-23T01:00:12.499Z,91.90
2018-11-23T01:02:40.708Z,91.90
2018-11-23T01:05:10.099Z,91.20
2018-11-23T01:07:38.488Z,91.50
2018-11-23T01:10:08.577Z,91.50
2018-11-23T01:12:37.751Z,91.90
2018-11-23T01:15:06.462Z,91.90
2018-11-23T01:17:34.748Z,91.90
2018-11-23T01:20:03.120Z,91.90
2018-11-23T01:22:31.422Z,91.90
2018-11-23T01:24:59.808Z,91.90
2018-11-23T01:27:28.076Z,91.90
2018-11-23T01:29:56.373Z,91.70
2018-11-23T01:32:25.278Z,91.90
2018-11-23T01:34:54.634Z,91.90
2018-11-23T01:37:23.130Z,91.90
2018-11-23T01:39:51.476Z,91.90
2018-11-23T01:42:19.732Z,91.90
2018-11-23T01:44:51.731Z,91.80
2018-11-23T01:47:22.643Z,91.90
2018-11-23T01:49:51.145Z,91.70
2018-11-23T01:52:19.382Z,91.60
2018-11-23T01:54:47.624Z,91.70
2018-11-23T01:57:15.890Z,91.00
2018-11-23T01:59:44.107Z,90.90
2018-11-23T02:02:12.379Z,91.00
2018-11-23T02:04:40.696Z,91.60
2018-11-23T02:07:08.982Z,91.80
2018-11-23T02:09:37.255Z,91.30
2018-11-23T02:12:05.528Z,91.90
2018-11-23T02:14:33.768Z,91.90
2018-11-23T02:17:01.997Z,91.90
2018-11-23T02:19:30.324Z,91.60
2018-11-23T02:21:58.580Z,91.20
2018-11-23T02:24:26.856Z,91.00
2018-11-23T02:26:55.148Z,90.90
2018-11-23T02:29:23.391Z,91.10
2018-11-23T02:31:51.708Z,91.10
2018-11-23T02:34:20.352Z,91.00
2018-11-23T02:36:49.684Z,90.80
2018-11-23T02:39:17.916Z,90.50
2018-11-23T02:41:46.168Z,90.30
2018-11-23T02:44:14.481Z,90.70
2018-11-23T02:46:42.724Z,90.90
2018-11-23T02:49:11.004Z,90.80
2018-11-23T02:51:39.285Z,90.90
2018-11-23T02:54:07.553Z,91.00
2018-11-23T02:56:41.947Z,91.00
2018-11-23T02:59:10.204Z,91.10
2018-11-23T03:01:38.833Z,91.20
2018-11-23T03:04:07.729Z,91.40
2018-11-23T03:06:36.782Z,91.20
2018-11-23T03:09:07.761Z,91.30
2018-11-23T03:11:37.049Z,90.90
2018-11-23T03:14:05.809Z,90.50
2018-11-23T03:16:34.254Z,90.80
2018-11-23T03:19:02.512Z,90.70
2018-11-23T03:21:30.770Z,91.00
2018-11-23T03:23:59.121Z,90.90
2018-11-23T03:26:27.397Z,90.60
2018-11-23T03:28:55.640Z,90.10
2018-11-23T03:31:25.039Z,90.30
2018-11-23T03:33:53.800Z,90.80
2018-11-23T03:36:22.985Z,90.80
2018-11-23T03:38:52.401Z,90.70
2018-11-23T03:41:20.733Z,90.40
2018-11-23T03:43:48.976Z,90.60
2018-11-23T03:46:17.256Z,90.40
2018-11-23T03:48:45.479Z,90.70
2018-11-23T03:51:13.792Z,91.10
2018-11-23T03:53:42.468Z,91.10
2018-11-23T03:56:10.735Z,91.00
2018-11-23T03:58:38.996Z,90.80
2018-11-23T04:04:10.520Z,91.20
2018-11-23T04:06:38.698Z,90.70
2018-11-23T04:09:08.365Z,90.40
2018-11-23T04:11:36.607Z,90.30
2018-11-23T04:14:05.316Z,90.10
2018-11-23T04:16:33.549Z,90.30
2018-11-23T04:19:02.288Z,90.20
2018-11-23T04:21:30.458Z,90.00
2018-11-23T04:23:58.696Z,89.60
2018-11-23T04:26:26.932Z,89.70
2018-11-23T04:28:55.180Z,90.00
2018-11-23T04:31:23.392Z,90.40
2018-11-23T04:33:52.174Z,91.10
2018-11-23T04:36:20.434Z,91.30
2018-11-23T04:38:48.849Z,91.30
2018-11-23T04:41:17.109Z,91.60
2018-11-23T04:43:45.777Z,91.30
2018-11-23T04:46:14.037Z,91.30
2018-11-23T04:48:42.260Z,91.50
2018-11-23T04:51:10.526Z,91.90
2018-11-23T04:53:38.771Z,91.90
2018-11-23T04:56:07.034Z,91.90
2018-11-23T04:58:35.874Z,91.90
2018-11-23T05:01:04.157Z,91.90
2018-11-23T05:03:32.491Z,91.90
2018-11-23T05:06:00.640Z,91.40
2018-11-23T05:08:29.363Z,91.30
2018-11-23T05:10:57.624Z,91.90
2018-11-23T05:13:26.784Z,91.90
2018-11-23T05:15:55.753Z,91.90
2018-11-23T05:18:23.940Z,91.70
2018-11-23T05:20:52.385Z,91.90
2018-11-23T05:23:20.585Z,91.90
2018-11-23T05:25:48.786Z,91.80
2018-11-23T05:28:17.015Z,91.80
2018-11-23T05:30:45.564Z,91.70
2018-11-23T05:33:14.548Z,91.70
2018-11-23T05:35:42.829Z,91.60
2018-11-23T05:38:11.064Z,91.30
2018-11-23T05:40:39.266Z,91.40
2018-11-23T05:43:07.540Z,91.00
2018-11-23T05:45:35.764Z,90.80
2018-11-23T05:48:04.020Z,91.10
2018-11-23T05:50:32.321Z,91.10
2018-11-23T05:53:00.541Z,91.20
2018-11-23T05:55:28.793Z,91.50
2018-11-23T05:57:57.307Z,91.70
2018-11-23T06:00:27.765Z,91.90
2018-11-23T06:02:56.020Z,91.90
2018-11-23T06:05:24.303Z,91.60
2018-11-23T06:07:52.762Z,91.70
2018-11-23T06:10:21.551Z,91.80
2018-11-23T06:12:49.865Z,91.70
2018-11-23T06:15:19.432Z,91.90
2018-11-23T06:17:48.944Z,91.90
2018-11-23T06:20:19.264Z,91.90
2018-11-23T06:22:48.269Z,91.90
2018-11-23T06:25:25.737Z,91.90
2018-11-23T06:27:54.008Z,91.90
2018-11-23T06:30:22.233Z,91.90
2018-11-23T06:33:01.926Z,91.90
2018-11-23T06:35:30.208Z,91.90
2018-11-23T06:37:58.436Z,91.90
2018-11-23T06:40:26.654Z,91.90
2018-11-23T06:42:54.866Z,91.90
2018-11-23T06:45:23.202Z,91.90
2018-11-23T06:47:51.427Z,91.90
2018-11-23T06:50:19.619Z,91.90
2018-11-23T06:52:47.888Z,91.90
2018-11-23T06:55:16.158Z,91.90
2018-11-23T06:57:44.472Z,91.90
2018-11-23T07:00:15.713Z,91.90
2018-11-23T07:02:44.909Z,91.90
2018-11-23T07:05:13.433Z,91.90
2018-11-23T07:07:42.480Z,91.90
2018-11-23T07:10:11.639Z,91.90
2018-11-23T07:12:40.517Z,91.90
2018-11-23T07:15:10.061Z,91.90
2018-11-23T07:17:38.492Z,91.90
2018-11-23T07:20:09.504Z,91.90
2018-11-23T07:22:38.859Z,91.90
2018-11-23T07:25:08.117Z,91.90
2018-11-23T07:27:36.385Z,91.90
2018-11-23T07:30:08.296Z,91.90
2018-11-23T07:32:36.636Z,91.90
2018-11-23T07:35:04.977Z,91.90
2018-11-23T07:37:33.840Z,91.90
2018-11-23T07:40:13.516Z,91.90
2018-11-23T07:42:48.371Z,91.90
2018-11-23T07:45:16.685Z,91.90
2018-11-23T07:47:44.887Z,91.90
2018-11-23T07:50:13.169Z,91.90
2018-11-23T07:52:41.403Z,91.90
2018-11-23T07:55:10.652Z,91.90
2018-11-23T07:57:38.969Z,91.90
2018-11-23T08:00:15.133Z,91.90
2018-11-23T08:02:43.904Z,91.90
2018-11-23T08:05:13.420Z,91.90
2018-11-23T08:07:41.619Z,91.90
2018-11-23T08:10:11.396Z,91.90
2018-11-23T08:12:40.810Z,91.90
2018-11-23T08:15:12.672Z,91.90
2018-11-23T08:17:41.187Z,91.90
2018-11-23T08:20:11.893Z,91.90
2018-11-23T08:22:40.353Z,91.90
2018-11-23T08:25:09.449Z,91.90
2018-11-23T08:27:38.555Z,91.90
2018-11-23T08:30:14.614Z,91.90
2018-11-23T08:32:42.904Z,91.90
2018-11-23T08:35:11.379Z,91.90
2018-11-23T08:37:39.792Z,91.90
2018-11-23T08:40:14.011Z,91.90
2018-11-23T08:42:42.734Z,91.90
2018-11-23T08:45:12.627Z,91.90
2018-11-23T08:47:40.900Z,91.90
2018-11-23T08:50:12.574Z,91.90
2018-11-23T08:52:40.734Z,91.90
2018-11-23T08:55:09.735Z,91.90
2018-11-23T08:57:37.941Z,91.90
2018-11-23T09:00:14.028Z,91.70
2018-11-23T09:02:42.896Z,91.50
2018-11-23T09:05:11.264Z,91.30
2018-11-23T09:07:39.566Z,91.10
2018-11-23T09:10:10.804Z,91.30
2018-11-23T09:12:40.004Z,91.10
2018-11-23T09:15:09.437Z,91.30
2018-11-23T09:17:37.672Z,91.00
2018-11-23T09:20:07.579Z,90.80
2018-11-23T09:22:35.949Z,91.00
2018-11-23T09:25:04.552Z,90.80
2018-11-23T09:27:32.808Z,90.70
2018-11-23T09:30:01.105Z,90.60
2018-11-23T09:32:29.424Z,90.30
2018-11-23T09:34:57.659Z,89.90
2018-11-23T09:37:25.884Z,90.00
2018-11-23T09:39:54.155Z,89.90
2018-11-23T09:42:22.410Z,89.50
2018-11-23T09:44:50.807Z,89.40
2018-11-23T09:47:19.063Z,89.50
2018-11-23T09:49:47.319Z,89.50
2018-11-23T09:52:15.531Z,88.90
2018-11-23T09:54:43.830Z,88.70
2018-11-23T09:57:12.146Z,88.90
2018-11-23T09:59:40.365Z,88.70
2018-11-23T10:02:09.184Z,88.70
2018-11-23T10:04:37.896Z,88.80
2018-11-23T10:07:06.361Z,88.90
2018-11-23T10:09:34.593Z,88.20
2018-11-23T10:12:02.839Z,88.30
2018-11-23T10:14:31.101Z,88.20
2018-11-23T10:16:59.325Z,88.10
2018-11-23T10:19:30.572Z,87.80
2018-11-23T10:21:59.833Z,87.60
2018-11-23T10:24:28.085Z,87.50
2018-11-23T10:26:56.401Z,87.80
2018-11-23T10:29:24.658Z,87.50
2018-11-23T10:31:53.040Z,87.50
2018-11-23T10:34:21.268Z,87.80
2018-11-23T10:36:49.481Z,87.30
2018-11-23T10:39:17.793Z,87.50
2018-11-23T10:41:46.076Z,87.50
2018-11-23T10:44:14.327Z,87.20
2018-11-23T10:46:42.590Z,87.20
2018-11-23T10:49:10.835Z,87.30
2018-11-23T10:51:39.056Z,87.20
2018-11-23T10:54:08.000Z,87.00
2018-11-23T10:56:36.227Z,86.80
2018-11-23T10:59:04.983Z,86.80
2018-11-23T11:02:37.188Z,86.70
2018-11-23T11:05:11.130Z,86.80
2018-11-23T11:07:39.390Z,86.40
2018-11-23T11:10:07.610Z,86.30
2018-11-23T11:12:36.848Z,86.00
2018-11-23T11:15:06.573Z,85.80
2018-11-23T11:17:35.825Z,85.70
2018-11-23T11:20:04.320Z,85.20
2018-11-23T11:22:33.311Z,85.50
2018-11-23T11:25:01.562Z,85.40
2018-11-23T11:27:29.792Z,85.60
2018-11-23T11:29:57.987Z,85.00
2018-11-23T11:32:26.262Z,84.10
2018-11-23T11:34:54.490Z,84.00
2018-11-23T11:37:22.719Z,83.90
2018-11-23T11:39:52.476Z,83.40
2018-11-23T11:42:20.745Z,83.60
2018-11-23T11:44:55.617Z,83.30
2018-11-23T11:47:23.863Z,83.30
2018-11-23T11:49:59.037Z,82.80
2018-11-23T11:52:20.896Z,82.80
2018-11-23T11:54:49.150Z,82.40
2018-11-23T11:57:17.374Z,82.50
2018-11-23T11:59:45.642Z,82.30
2018-11-23T12:02:13.910Z,82.20
2018-11-23T12:04:42.180Z,82.10
2018-11-23T12:07:10.470Z,82.00
2018-11-23T12:09:38.736Z,82.10
2018-11-23T12:12:06.972Z,81.90
2018-11-23T12:14:36.247Z,81.80
2018-11-23T12:17:04.600Z,81.70
2018-11-23T12:19:32.824Z,81.10
2018-11-23T12:22:01.085Z,80.50
2018-11-23T12:24:29.292Z,80.70
2018-11-23T12:26:57.596Z,80.30
2018-11-23T12:29:25.840Z,80.20
2018-11-23T12:31:54.280Z,80.20
2018-11-23T12:34:22.519Z,79.90
2018-11-23T12:36:50.857Z,80.00
2018-11-23T12:39:20.072Z,80.50
2018-11-23T12:41:48.315Z,80.80
2018-11-23T12:44:16.872Z,80.80
2018-11-23T12:49:19.816Z,80.20
2018-11-23T12:51:48.044Z,79.80
2018-11-23T12:54:16.328Z,79.80
2018-11-23T12:56:44.643Z,79.70
2018-11-23T12:59:12.884Z,79.80
2018-11-23T13:01:41.405Z,79.50
2018-11-23T13:04:09.624Z,79.50
2018-11-23T13:06:37.885Z,79.40
2018-11-23T13:09:07.696Z,79.20
2018-11-23T13:11:39.316Z,79.10
2018-11-23T13:14:08.732Z,79.10
2018-11-23T13:16:37.303Z,79.70
2018-11-23T13:19:05.613Z,79.40
2018-11-23T13:21:33.892Z,79.10
2018-11-23T13:24:02.571Z,79.80
2018-11-23T13:26:30.859Z,79.60
2018-11-23T13:29:02.794Z,79.60
2018-11-23T13:31:27.498Z,79.60
2018-11-23T13:33:56.029Z,79.50
2018-11-23T13:36:24.362Z,79.60
2018-11-23T13:38:52.667Z,80.00
2018-11-23T13:41:20.875Z,80.50
2018-11-23T13:43:49.764Z,81.10
2018-11-23T13:48:52.524Z,81.50
2018-11-23T13:51:20.763Z,81.70
2018-11-23T13:53:49.007Z,82.10
2018-11-23T13:56:17.255Z,82.50
2018-11-23T13:58:45.671Z,82.50
2018-11-23T14:01:13.903Z,82.40
2018-11-23T14:03:42.566Z,82.50
2018-11-23T14:06:10.916Z,83.00
2018-11-23T14:08:39.224Z,83.30
2018-11-23T14:11:07.421Z,83.70
2018-11-23T14:13:35.687Z,84.10
2018-11-23T14:16:03.960Z,84.40
2018-11-23T14:18:32.222Z,84.60
2018-11-23T14:21:00.512Z,85.20
2018-11-23T14:23:28.768Z,85.30
2018-11-23T14:25:57.146Z,85.70
2018-11-23T14:28:25.412Z,86.80
2018-11-23T14:30:53.720Z,87.10
2018-11-23T14:33:22.589Z,87.40
2018-11-23T14:35:50.833Z,88.00
2018-11-23T14:38:19.548Z,88.00
2018-11-23T14:40:47.768Z,88.40
2018-11-23T14:43:16.125Z,88.60
2018-11-23T14:45:44.352Z,88.90
2018-11-23T14:48:13.151Z,89.10
2018-11-23T14:50:46.680Z,88.90
2018-11-23T14:53:14.945Z,89.30
2018-11-23T14:55:43.571Z,89.60
2018-11-23T14:58:11.785Z,89.90
2018-11-23T15:00:40.656Z,89.80
2018-11-23T15:03:09.072Z,90.20
2018-11-23T15:05:37.720Z,90.50
2018-11-23T15:08:06.006Z,90.70
2018-11-23T15:10:35.271Z,90.80
2018-11-23T15:13:04.324Z,91.10
2018-11-23T15:15:35.954Z,91.40
2018-11-23T15:18:04.208Z,91.60
2018-11-23T15:20:35.771Z,91.60
2018-11-23T15:23:09.560Z,91.80
2018-11-23T15:25:37.905Z,91.90
2018-11-23T15:28:07.447Z,91.90
2018-11-23T15:30:36.719Z,91.90
2018-11-23T15:33:05.430Z,91.90
2018-11-23T15:35:35.000Z,91.90
2018-11-23T15:38:06.008Z,91.90
2018-11-23T15:40:32.563Z,91.90
2018-11-23T15:43:02.261Z,91.90
2018-11-23T15:45:31.424Z,91.90
2018-11-23T15:48:00.253Z,91.90
2018-11-23T15:50:30.268Z,91.90
2018-11-23T15:52:58.891Z,91.90
2018-11-23T15:55:29.076Z,91.90
2018-11-23T15:57:59.567Z,91.90
2018-11-23T16:00:30.237Z,91.90
2018-11-23T16:02:58.474Z,91.90
2018-11-23T16:05:27.503Z,91.90
2018-11-23T16:07:57.413Z,91.90
2018-11-23T16:10:29.988Z,91.90
2018-11-23T16:12:59.477Z,91.90
2018-11-23T16:15:28.132Z,91.90
2018-11-23T16:17:56.735Z,91.90
2018-11-23T16:20:27.591Z,91.90
2018-11-23T16:22:57.299Z,91.90
2018-11-23T16:25:25.625Z,91.90
2018-11-23T16:27:55.475Z,91.90
2018-11-23T16:30:26.862Z,91.90
2018-11-23T16:32:56.140Z,91.90
2018-11-23T16:35:26.556Z,91.90
2018-11-23T16:37:55.845Z,91.90
2018-11-23T16:40:25.572Z,91.90
2018-11-23T16:42:54.398Z,91.90
2018-11-23T16:45:24.300Z,91.90
2018-11-23T16:47:53.669Z,91.90
2018-11-23T16:50:21.928Z,91.90
2018-11-23T16:52:50.743Z,91.90
2018-11-23T16:55:20.039Z,91.90
2018-11-23T16:57:52.415Z,91.90
2018-11-23T17:00:22.865Z,91.90
2018-11-23T17:02:51.338Z,91.90
2018-11-23T17:05:21.149Z,91.90
2018-11-23T17:07:49.364Z,91.90
2018-11-23T17:10:18.407Z,91.90
2018-11-23T17:12:47.675Z,91.90
2018-11-23T17:15:17.308Z,91.90
2018-11-23T17:17:45.777Z,91.90
2018-11-23T17:20:18.371Z,91.90
2018-11-23T17:22:47.876Z,91.90
2018-11-23T17:25:17.496Z,91.90
2018-11-23T17:27:45.880Z,91.90
2018-11-23T17:30:15.780Z,91.90
2018-11-23T17:32:45.017Z,91.90
2018-11-23T17:35:13.322Z,91.90
2018-11-23T17:37:42.589Z,91.90
2018-11-23T17:40:12.938Z,91.90
2018-11-23T17:42:41.236Z,91.90
2018-11-23T17:45:11.920Z,91.90
2018-11-23T17:47:40.194Z,91.90
2018-11-23T17:50:10.544Z,91.90
2018-11-23T17:52:40.580Z,91.90
2018-11-23T17:55:09.991Z,91.90
2018-11-23T17:57:39.500Z,91.90
2018-11-23T18:00:13.806Z,91.90
2018-11-23T18:02:42.238Z,91.90
2018-11-23T18:05:11.688Z,91.90
2018-11-23T18:07:39.953Z,91.90
2018-11-23T18:10:11.428Z,91.90
2018-11-23T18:12:39.705Z,91.90
2018-11-23T18:15:09.844Z,91.90
2018-11-23T18:17:38.968Z,91.90
2018-11-23T18:20:09.428Z,91.90
2018-11-23T18:22:37.888Z,91.90
2018-11-23T18:25:08.552Z,91.90
2018-11-23T18:27:37.405Z,91.90
2018-11-23T18:30:06.808Z,91.90
2018-11-23T18:32:35.056Z,91.90
2018-11-23T18:35:03.354Z,91.90
2018-11-23T18:37:31.610Z,91.90
2018-11-23T18:39:59.816Z,91.90
2018-11-23T18:42:28.044Z,91.90
2018-11-23T18:44:56.547Z,91.90
2018-11-23T18:47:24.742Z,91.90
2018-11-23T18:49:52.970Z,91.90
2018-11-23T18:52:21.234Z,91.90
2018-11-23T18:54:49.467Z,91.90
2018-11-23T18:57:17.719Z,91.90
2018-11-23T18:59:45.937Z,91.90
2018-11-23T19:02:14.232Z,91.90
2018-11-23T19:04:42.509Z,91.90
2018-11-23T19:07:10.693Z,91.90
2018-11-23T19:09:38.901Z,91.90
2018-11-23T19:12:07.069Z,91.90
2018-11-23T19:14:35.897Z,91.90
2018-11-23T19:17:04.253Z,91.90
2018-11-23T19:19:32.393Z,91.90
2018-11-23T19:22:00.560Z,91.90
2018-11-23T19:24:28.737Z,91.90
2018-11-23T19:26:57.037Z,91.90
2018-11-23T19:29:25.306Z,91.90
2018-11-23T19:31:54.096Z,91.90
2018-11-23T19:34:22.304Z,91.90
2018-11-23T19:36:50.498Z,91.90
2018-11-23T19:39:18.788Z,91.90
2018-11-23T19:41:47.053Z,91.90
2018-11-23T19:44:15.304Z,91.90
2018-11-23T19:46:43.495Z,91.90
2018-11-23T19:49:11.774Z,91.90
2018-11-23T19:51:40.135Z,91.90
2018-11-23T19:54:08.719Z,91.90
2018-11-23T19:56:37.011Z,91.90
2018-11-23T19:59:05.504Z,91.90
2018-11-23T20:01:33.745Z,91.90
2018-11-23T20:04:01.953Z,91.90
2018-11-23T20:06:30.600Z,91.90
2018-11-23T20:08:58.892Z,91.90
2018-11-23T20:11:27.131Z,91.90
2018-11-23T20:13:55.429Z,91.90
2018-11-23T20:16:23.656Z,91.90
2018-11-23T20:18:51.937Z,91.90
2018-11-23T20:21:20.168Z,91.90
2018-11-23T20:23:48.424Z,91.90
2018-11-23T20:26:18.144Z,91.90
2018-11-23T20:28:46.433Z,91.90
2018-11-23T20:31:14.693Z,91.90
2018-11-23T20:33:42.957Z,91.90
2018-11-23T20:36:11.210Z,91.90
2018-11-23T20:38:40.033Z,91.90
2018-11-23T20:41:08.289Z,91.90
2018-11-23T20:43:36.565Z,91.90
2018-11-23T20:46:05.093Z,91.90
2018-11-23T20:48:33.362Z,91.90
2018-11-23T20:51:01.648Z,91.90
2018-11-23T20:53:29.943Z,91.90
2018-11-23T20:56:01.668Z,91.90
2018-11-23T20:58:30.535Z,91.90
2018-11-23T21:00:58.707Z,91.90
2018-11-23T21:03:26.887Z,91.90
2018-11-23T21:05:55.224Z,91.90
2018-11-23T21:08:23.447Z,91.90
2018-11-23T21:10:51.699Z,91.90
2018-11-23T21:13:26.444Z,91.90
2018-11-23T21:15:54.700Z,91.90
2018-11-23T21:18:22.888Z,91.90
2018-11-23T21:20:51.101Z,91.90
2018-11-23T21:23:19.369Z,91.90
2018-11-23T21:25:47.644Z,91.90
2018-11-23T21:28:15.881Z,91.90
2018-11-23T21:30:44.998Z,91.90
2018-11-23T21:33:13.265Z,91.90
2018-11-23T21:35:41.542Z,91.90
2018-11-23T21:38:09.845Z,91.90
2018-11-23T21:40:40.701Z,91.90
2018-11-23T21:43:07.609Z,91.90
2018-11-23T21:45:35.928Z,91.90
2018-11-23T21:48:04.289Z,91.90
2018-11-23T21:50:32.516Z,91.90
2018-11-23T21:53:00.788Z,91.90
2018-11-23T21:55:29.076Z,91.90
2018-11-23T21:57:57.975Z,91.90
2018-11-23T22:00:26.232Z,91.90
2018-11-23T22:02:54.488Z,91.90
2018-11-23T22:05:22.783Z,91.90
2018-11-23T22:07:51.171Z,91.90
2018-11-23T22:10:20.065Z,91.90
2018-11-23T22:12:49.096Z,91.90
2018-11-23T22:15:21.352Z,91.90
2018-11-23T22:17:50.392Z,91.90
2018-11-23T22:20:19.693Z,91.90
2018-11-23T22:22:47.960Z,91.90
2018-11-23T22:25:17.162Z,91.90
2018-11-23T22:27:45.380Z,91.90
2018-11-23T22:30:17.827Z,91.90
2018-11-23T22:32:46.067Z,91.90
2018-11-23T22:35:14.342Z,91.90
2018-11-23T22:37:43.519Z,91.90
2018-11-23T22:40:13.739Z,91.90
2018-11-23T22:42:43.735Z,91.90
2018-11-23T22:45:12.783Z,91.90
2018-11-23T22:47:41.110Z,91.90
2018-11-23T22:50:10.856Z,91.90
2018-11-23T22:52:39.197Z,91.90
2018-11-23T22:55:09.128Z,91.90
2018-11-23T22:57:37.640Z,91.90
2018-11-23T23:00:16.892Z,91.90
2018-11-23T23:02:45.165Z,91.90
2018-11-23T23:05:13.969Z,91.90
2018-11-23T23:07:42.258Z,91.90
2018-11-23T23:10:11.056Z,91.90
2018-11-23T23:12:39.296Z,91.90
2018-11-23T23:15:09.381Z,91.90
2018-11-23T23:17:38.262Z,91.90
2018-11-23T23:20:14.405Z,91.90
2018-11-23T23:22:42.700Z,91.90
2018-11-23T23:25:11.785Z,91.90
2018-11-23T23:27:41.621Z,91.90
2018-11-23T23:30:12.468Z,91.90
2018-11-23T23:32:40.800Z,91.90
2018-11-23T23:35:10.100Z,91.90
2018-11-23T23:37:38.472Z,91.90
2018-11-23T23:40:12.839Z,91.90
2018-11-23T23:42:41.159Z,91.90
2018-11-23T23:45:15.005Z,91.90
2018-11-23T23:47:43.243Z,91.90
2018-11-23T23:50:15.474Z,91.90
2018-11-23T23:52:43.728Z,91.90
2018-11-23T23:55:12.593Z,91.90
2018-11-23T23:57:42.684Z,91.90
